sensor_id;sensor_type;location;lat;lon;timestamp;pressure;altitude;pressure_sealevel;temperature;humidity
12666;BME280;58531;59.050;17.416;2023-02-12T00:01:21;102185.63;;;-6.71;100.00
12666;BME280;58531;59.050;17.416;2023-02-12T00:03:49;102186.09;;;-6.69;100.00
12666;BME280;58531;59.050;17.416;2023-02-12T00:06:15;102192.09;;;-6.68;100.00
12666;BME280;58531;59.050;17.416;2023-02-12T00:08:43;102198.53;;;-6.66;100.00
12666;BME280;58531;59.050;17.416;2023-02-12T00:11:11;102200.16;;;-6.70;100.00
12666;BME280;58531;59.050;17.416;2023-02-12T00:13:39;102197.63;;;-6.75;100.00
12666;BME280;58531;59.050;17.416;2023-02-12T00:16:07;102200.28;;;-6.80;100.00
12666;BME280;58531;59.050;17.416;2023-02-12T00:18:35;102208.06;;;-6.80;100.00
12666;BME280;58531;59.050;17.416;2023-02-12T00:21:03;102205.28;;;-6.83;100.00
12666;BME280;58531;59.050;17.416;2023-02-12T00:23:31;102200.16;;;-6.88;100.00
12666;BME280;58531;59.050;17.416;2023-02-12T00:25:57;102189.81;;;-6.93;100.00
12666;BME280;58531;59.050;17.416;2023-02-12T00:28:25;102190.63;;;-6.93;100.00
12666;BME280;58531;59.050;17.416;2023-02-12T00:30:52;102188.28;;;-6.94;100.00
12666;BME280;58531;59.050;17.416;2023-02-12T00:33:18;102192.16;;;-6.92;100.00
12666;BME280;58531;59.050;17.416;2023-02-12T00:35:54;102192.06;;;-6.87;100.00
12666;BME280;58531;59.050;17.416;2023-02-12T00:38:21;102192.06;;;-6.87;100.00
12666;BME280;58531;59.050;17.416;2023-02-12T00:40:48;102182.16;;;-6.85;100.00
12666;BME280;58531;59.050;17.416;2023-02-12T00:43:14;102191.59;;;-6.89;100.00
12666;BME280;58531;59.050;17.416;2023-02-12T00:45:43;102184.06;;;-6.90;100.00
12666;BME280;58531;59.050;17.416;2023-02-12T00:48:10;102187.72;;;-6.91;100.00
12666;BME280;58531;59.050;17.416;2023-02-12T00:50:37;102181.78;;;-6.92;100.00
12666;BME280;58531;59.050;17.416;2023-02-12T00:53:06;102182.81;;;-6.93;100.00
12666;BME280;58531;59.050;17.416;2023-02-12T00:55:33;102183.88;;;-6.93;100.00
12666;BME280;58531;59.050;17.416;2023-02-12T00:58:00;102184.44;;;-6.96;100.00
12666;BME280;58531;59.050;17.416;2023-02-12T01:00:27;102178.44;;;-6.97;100.00
12666;BME280;58531;59.050;17.416;2023-02-12T01:02:54;102177.69;;;-6.97;100.00
12666;BME280;58531;59.050;17.416;2023-02-12T01:05:21;102180.28;;;-6.97;100.00
12666;BME280;58531;59.050;17.416;2023-02-12T01:07:48;102185.19;;;-6.96;100.00
12666;BME280;58531;59.050;17.416;2023-02-12T01:10:17;102181.06;;;-6.97;100.00
12666;BME280;58531;59.050;17.416;2023-02-12T01:12:46;102193.84;;;-7.00;100.00
12666;BME280;58531;59.050;17.416;2023-02-12T01:15:14;102195.38;;;-6.99;100.00
12666;BME280;58531;59.050;17.416;2023-02-12T01:17:42;102189.94;;;-7.03;100.00
12666;BME280;58531;59.050;17.416;2023-02-12T01:20:11;102195.44;;;-7.04;100.00
12666;BME280;58531;59.050;17.416;2023-02-12T01:22:39;102185.06;;;-7.04;100.00
12666;BME280;58531;59.050;17.416;2023-02-12T01:25:06;102186.72;;;-6.95;100.00
12666;BME280;58531;59.050;17.416;2023-02-12T01:27:35;102189.06;;;-6.93;100.00
12666;BME280;58531;59.050;17.416;2023-02-12T01:30:02;102192.72;;;-6.94;100.00
12666;BME280;58531;59.050;17.416;2023-02-12T01:32:29;102191.72;;;-6.98;100.00
12666;BME280;58531;59.050;17.416;2023-02-12T01:34:56;102194.81;;;-6.96;100.00
12666;BME280;58531;59.050;17.416;2023-02-12T01:37:23;102190.19;;;-6.99;100.00
12666;BME280;58531;59.050;17.416;2023-02-12T01:39:50;102188.63;;;-7.00;100.00
12666;BME280;58531;59.050;17.416;2023-02-12T01:42:17;102194.75;;;-6.92;100.00
12666;BME280;58531;59.050;17.416;2023-02-12T01:45:30;102189.56;;;-6.92;100.00
12666;BME280;58531;59.050;17.416;2023-02-12T01:48:06;102192.66;;;-6.90;100.00
12666;BME280;58531;59.050;17.416;2023-02-12T01:50:33;102196.69;;;-6.84;100.00
12666;BME280;58531;59.050;17.416;2023-02-12T01:53:01;102190.94;;;-6.81;100.00
12666;BME280;58531;59.050;17.416;2023-02-12T01:55:28;102196.06;;;-6.76;100.00
12666;BME280;58531;59.050;17.416;2023-02-12T01:57:55;102188.22;;;-6.71;100.00
12666;BME280;58531;59.050;17.416;2023-02-12T02:00:23;102201.13;;;-6.66;100.00
12666;BME280;58531;59.050;17.416;2023-02-12T02:02:55;102182.03;;;-6.56;100.00
12666;BME280;58531;59.050;17.416;2023-02-12T02:05:29;102184.28;;;-6.50;100.00
12666;BME280;58531;59.050;17.416;2023-02-12T02:07:56;102180.34;;;-6.47;100.00
12666;BME280;58531;59.050;17.416;2023-02-12T02:10:24;102172.75;;;-6.44;100.00
12666;BME280;58531;59.050;17.416;2023-02-12T02:12:51;102176.81;;;-6.38;100.00
12666;BME280;58531;59.050;17.416;2023-02-12T02:15:36;102170.19;;;-6.30;100.00
12666;BME280;58531;59.050;17.416;2023-02-12T02:18:07;102163.66;;;-6.28;100.00
12666;BME280;58531;59.050;17.416;2023-02-12T02:21:17;102164.69;;;-6.29;100.00
12666;BME280;58531;59.050;17.416;2023-02-12T02:24:04;102166.25;;;-6.28;100.00
12666;BME280;58531;59.050;17.416;2023-02-12T02:27:02;102172.22;;;-6.27;100.00
12666;BME280;58531;59.050;17.416;2023-02-12T02:29:46;102161.28;;;-6.24;100.00
12666;BME280;58531;59.050;17.416;2023-02-12T02:32:26;102162.03;;;-6.24;100.00
12666;BME280;58531;59.050;17.416;2023-02-12T02:34:58;102158.44;;;-6.28;100.00
12666;BME280;58531;59.050;17.416;2023-02-12T02:37:31;102152.75;;;-6.30;100.00
12666;BME280;58531;59.050;17.416;2023-02-12T02:40:08;102149.59;;;-6.27;100.00
12666;BME280;58531;59.050;17.416;2023-02-12T02:42:41;102146.25;;;-6.14;100.00
12666;BME280;58531;59.050;17.416;2023-02-12T02:45:12;102132.13;;;-6.08;100.00
12666;BME280;58531;59.050;17.416;2023-02-12T02:47:44;102130.91;;;-5.97;100.00
12666;BME280;58531;59.050;17.416;2023-02-12T02:50:14;102126.66;;;-5.93;100.00
12666;BME280;58531;59.050;17.416;2023-02-12T02:52:44;102132.91;;;-5.94;100.00
12666;BME280;58531;59.050;17.416;2023-02-12T02:55:14;102116.25;;;-5.93;100.00
12666;BME280;58531;59.050;17.416;2023-02-12T02:57:46;102114.16;;;-5.91;100.00
12666;BME280;58531;59.050;17.416;2023-02-12T03:02:49;102127.78;;;-5.72;100.00
12666;BME280;58531;59.050;17.416;2023-02-12T03:05:21;102127.78;;;-5.72;100.00
12666;BME280;58531;59.050;17.416;2023-02-12T03:07:53;102127.19;;;-5.69;100.00
12666;BME280;58531;59.050;17.416;2023-02-12T03:10:25;102125.56;;;-5.65;100.00
12666;BME280;58531;59.050;17.416;2023-02-12T03:12:55;102128.81;;;-5.60;100.00
12666;BME280;58531;59.050;17.416;2023-02-12T03:15:29;102131.81;;;-5.53;100.00
12666;BME280;58531;59.050;17.416;2023-02-12T03:18:00;102127.78;;;-5.45;100.00
12666;BME280;58531;59.050;17.416;2023-02-12T03:20:34;102117.13;;;-5.35;100.00
12666;BME280;58531;59.050;17.416;2023-02-12T03:23:05;102107.69;;;-5.31;100.00
12666;BME280;58531;59.050;17.416;2023-02-12T03:25:35;102110.78;;;-5.29;100.00
12666;BME280;58531;59.050;17.416;2023-02-12T03:28:06;102100.34;;;-5.29;100.00
12666;BME280;58531;59.050;17.416;2023-02-12T03:30:41;102099.78;;;-5.26;100.00
12666;BME280;58531;59.050;17.416;2023-02-12T03:33:18;102096.09;;;-5.25;100.00
12666;BME280;58531;59.050;17.416;2023-02-12T03:35:54;102087.06;;;-5.28;100.00
12666;BME280;58531;59.050;17.416;2023-02-12T03:38:32;102090.31;;;-5.22;100.00
12666;BME280;58531;59.050;17.416;2023-02-12T03:41:04;102093.13;;;-5.19;100.00
12666;BME280;58531;59.050;17.416;2023-02-12T03:43:37;102084.41;;;-5.14;100.00
12666;BME280;58531;59.050;17.416;2023-02-12T03:46:16;102072.34;;;-5.10;100.00
12666;BME280;58531;59.050;17.416;2023-02-12T03:48:56;102069.63;;;-5.05;100.00
12666;BME280;58531;59.050;17.416;2023-02-12T03:51:26;102079.00;;;-5.04;100.00
12666;BME280;58531;59.050;17.416;2023-02-12T03:53:55;102067.03;;;-5.05;100.00
12666;BME280;58531;59.050;17.416;2023-02-12T03:56:26;102067.03;;;-5.05;100.00
12666;BME280;58531;59.050;17.416;2023-02-12T03:58:55;102065.38;;;-5.01;100.00
12666;BME280;58531;59.050;17.416;2023-02-12T04:01:22;102060.66;;;-4.99;100.00
12666;BME280;58531;59.050;17.416;2023-02-12T04:03:50;102056.66;;;-4.97;100.00
12666;BME280;58531;59.050;17.416;2023-02-12T04:06:21;102059.88;;;-5.00;100.00
12666;BME280;58531;59.050;17.416;2023-02-12T04:08:48;102058.03;;;-4.99;100.00
12666;BME280;58531;59.050;17.416;2023-02-12T04:11:28;102057.16;;;-4.95;100.00
12666;BME280;58531;59.050;17.416;2023-02-12T04:14:12;102055.50;;;-4.91;100.00
12666;BME280;58531;59.050;17.416;2023-02-12T04:16:48;102052.78;;;-4.86;100.00
12666;BME280;58531;59.050;17.416;2023-02-12T04:19:24;102055.09;;;-4.84;100.00
12666;BME280;58531;59.050;17.416;2023-02-12T04:22:05;102053.34;;;-4.89;100.00
12666;BME280;58531;59.050;17.416;2023-02-12T04:24:43;102043.88;;;-4.85;100.00
12666;BME280;58531;59.050;17.416;2023-02-12T04:27:16;102050.81;;;-4.80;100.00
12666;BME280;58531;59.050;17.416;2023-02-12T04:29:49;102045.47;;;-4.75;100.00
12666;BME280;58531;59.050;17.416;2023-02-12T04:32:19;102051.16;;;-4.73;100.00
12666;BME280;58531;59.050;17.416;2023-02-12T04:34:55;102051.94;;;-4.73;100.00
12666;BME280;58531;59.050;17.416;2023-02-12T04:37:27;102047.97;;;-4.70;100.00
12666;BME280;58531;59.050;17.416;2023-02-12T04:39:57;102056.56;;;-4.70;100.00
12666;BME280;58531;59.050;17.416;2023-02-12T04:42:25;102052.56;;;-4.68;100.00
12666;BME280;58531;59.050;17.416;2023-02-12T04:44:52;102053.63;;;-4.68;100.00
12666;BME280;58531;59.050;17.416;2023-02-12T04:47:19;102048.44;;;-4.68;100.00
12666;BME280;58531;59.050;17.416;2023-02-12T04:49:46;102051.03;;;-4.68;100.00
12666;BME280;58531;59.050;17.416;2023-02-12T04:52:14;102052.09;;;-4.69;100.00
12666;BME280;58531;59.050;17.416;2023-02-12T04:54:41;102046.88;;;-4.69;100.00
12666;BME280;58531;59.050;17.416;2023-02-12T04:57:08;102040.59;;;-4.68;100.00
12666;BME280;58531;59.050;17.416;2023-02-12T04:59:35;102039.53;;;-4.68;100.00
12666;BME280;58531;59.050;17.416;2023-02-12T05:02:02;102043.69;;;-4.67;100.00
12666;BME280;58531;59.050;17.416;2023-02-12T05:04:29;102038.00;;;-4.68;100.00
12666;BME280;58531;59.050;17.416;2023-02-12T05:06:55;102034.34;;;-4.68;100.00
12666;BME280;58531;59.050;17.416;2023-02-12T05:09:24;102033.75;;;-4.65;100.00
12666;BME280;58531;59.050;17.416;2023-02-12T05:11:50;102042.81;;;-4.62;100.00
12666;BME280;58531;59.050;17.416;2023-02-12T05:14:17;102043.72;;;-4.58;100.00
12666;BME280;58531;59.050;17.416;2023-02-12T05:16:44;102038.22;;;-4.57;100.00
12666;BME280;58531;59.050;17.416;2023-02-12T05:19:11;102034.56;;;-4.56;100.00
12666;BME280;58531;59.050;17.416;2023-02-12T05:21:38;102017.84;;;-4.55;100.00
12666;BME280;58531;59.050;17.416;2023-02-12T05:24:05;102012.38;;;-4.45;100.00
12666;BME280;58531;59.050;17.416;2023-02-12T05:26:34;102011.19;;;-4.39;100.00
12666;BME280;58531;59.050;17.416;2023-02-12T05:29:01;102000.91;;;-4.35;100.00
12666;BME280;58531;59.050;17.416;2023-02-12T05:31:28;101997.09;;;-4.29;100.00
12666;BME280;58531;59.050;17.416;2023-02-12T05:33:55;101996.97;;;-4.24;100.00
12666;BME280;58531;59.050;17.416;2023-02-12T05:36:23;101994.84;;;-4.22;100.00
12666;BME280;58531;59.050;17.416;2023-02-12T05:38:51;101994.84;;;-4.22;100.00
12666;BME280;58531;59.050;17.416;2023-02-12T05:41:21;101997.13;;;-4.21;100.00
12666;BME280;58531;59.050;17.416;2023-02-12T05:43:50;101993.44;;;-4.20;100.00
12666;BME280;58531;59.050;17.416;2023-02-12T05:46:17;101991.91;;;-4.21;100.00
12666;BME280;58531;59.050;17.416;2023-02-12T05:48:45;101982.09;;;-4.24;100.00
12666;BME280;58531;59.050;17.416;2023-02-12T05:51:14;101980.06;;;-4.27;100.00
12666;BME280;58531;59.050;17.416;2023-02-12T05:53:41;101977.16;;;-4.34;100.00
12666;BME280;58531;59.050;17.416;2023-02-12T05:56:10;101979.59;;;-4.37;100.00
12666;BME280;58531;59.050;17.416;2023-02-12T05:58:39;101973.91;;;-4.39;100.00
12666;BME280;58531;59.050;17.416;2023-02-12T06:01:12;101961.19;;;-4.41;100.00
12666;BME280;58531;59.050;17.416;2023-02-12T06:03:39;101960.72;;;-4.43;100.00
12666;BME280;58531;59.050;17.416;2023-02-12T06:06:06;101958.13;;;-4.43;100.00
12666;BME280;58531;59.050;17.416;2023-02-12T06:08:33;101958.59;;;-4.41;100.00
12666;BME280;58531;59.050;17.416;2023-02-12T06:11:01;101956.91;;;-4.37;100.00
12666;BME280;58531;59.050;17.416;2023-02-12T06:13:29;101954.44;;;-4.33;100.00
12666;BME280;58531;59.050;17.416;2023-02-12T06:15:56;101955.69;;;-4.31;100.00
12666;BME280;58531;59.050;17.416;2023-02-12T06:18:25;101952.78;;;-4.29;100.00
12666;BME280;58531;59.050;17.416;2023-02-12T06:20:52;101963.34;;;-4.26;100.00
12666;BME280;58531;59.050;17.416;2023-02-12T06:23:19;101969.97;;;-4.28;100.00
12666;BME280;58531;59.050;17.416;2023-02-12T06:25:47;101965.50;;;-4.28;100.00
12666;BME280;58531;59.050;17.416;2023-02-12T06:28:14;101972.72;;;-4.25;100.00
12666;BME280;58531;59.050;17.416;2023-02-12T06:30:41;101977.47;;;-4.27;100.00
12666;BME280;58531;59.050;17.416;2023-02-12T06:33:08;101980.53;;;-4.25;100.00
12666;BME280;58531;59.050;17.416;2023-02-12T06:35:37;101985.94;;;-4.21;100.00
12666;BME280;58531;59.050;17.416;2023-02-12T06:38:04;101984.25;;;-4.17;100.00
12666;BME280;58531;59.050;17.416;2023-02-12T06:40:31;101991.63;;;-4.11;100.00
12666;BME280;58531;59.050;17.416;2023-02-12T06:42:58;101994.56;;;-4.12;100.00
12666;BME280;58531;59.050;17.416;2023-02-12T06:45:25;101990.28;;;-4.08;100.00
12666;BME280;58531;59.050;17.416;2023-02-12T06:47:52;101983.53;;;-4.01;100.00
12666;BME280;58531;59.050;17.416;2023-02-12T06:50:19;101990.00;;;-3.90;100.00
12666;BME280;58531;59.050;17.416;2023-02-12T06:52:47;101978.34;;;-3.84;100.00
12666;BME280;58531;59.050;17.416;2023-02-12T06:55:14;101979.72;;;-3.78;100.00
12666;BME280;58531;59.050;17.416;2023-02-12T06:57:41;101971.00;;;-3.73;100.00
12666;BME280;58531;59.050;17.416;2023-02-12T07:00:09;101954.41;;;-3.69;100.00
12666;BME280;58531;59.050;17.416;2023-02-12T07:02:36;101938.59;;;-3.64;100.00
12666;BME280;58531;59.050;17.416;2023-02-12T07:05:04;101932.59;;;-3.56;100.00
12666;BME280;58531;59.050;17.416;2023-02-12T07:07:31;101934.00;;;-3.50;100.00
12666;BME280;58531;59.050;17.416;2023-02-12T07:09:59;101934.13;;;-3.47;100.00
12666;BME280;58531;59.050;17.416;2023-02-12T07:12:26;101933.50;;;-3.44;100.00
12666;BME280;58531;59.050;17.416;2023-02-12T07:14:52;101928.13;;;-3.39;100.00
12666;BME280;58531;59.050;17.416;2023-02-12T07:17:19;101930.59;;;-3.34;100.00
12666;BME280;58531;59.050;17.416;2023-02-12T07:19:46;101940.53;;;-3.27;100.00
12666;BME280;58531;59.050;17.416;2023-02-12T07:22:13;101945.94;;;-3.24;100.00
12666;BME280;58531;59.050;17.416;2023-02-12T07:24:40;101938.25;;;-3.20;100.00
12666;BME280;58531;59.050;17.416;2023-02-12T07:27:09;101933.19;;;-3.17;100.00
12666;BME280;58531;59.050;17.416;2023-02-12T07:29:36;101942.38;;;-3.19;100.00
12666;BME280;58531;59.050;17.416;2023-02-12T07:32:03;101954.22;;;-3.13;100.00
12666;BME280;58531;59.050;17.416;2023-02-12T07:34:30;101958.34;;;-3.12;100.00
12666;BME280;58531;59.050;17.416;2023-02-12T07:36:57;101964.81;;;-3.10;100.00
12666;BME280;58531;59.050;17.416;2023-02-12T07:39:24;101957.25;;;-3.03;100.00
12666;BME280;58531;59.050;17.416;2023-02-12T07:41:51;101955.09;;;-2.92;100.00
12666;BME280;58531;59.050;17.416;2023-02-12T07:44:19;101945.84;;;-2.81;100.00
12666;BME280;58531;59.050;17.416;2023-02-12T07:46:47;101947.06;;;-2.79;100.00
12666;BME280;58531;59.050;17.416;2023-02-12T07:49:16;101951.63;;;-2.67;100.00
12666;BME280;58531;59.050;17.416;2023-02-12T07:51:44;101937.75;;;-2.59;100.00
12666;BME280;58531;59.050;17.416;2023-02-12T07:54:12;101935.88;;;-2.50;100.00
12666;BME280;58531;59.050;17.416;2023-02-12T07:56:40;101942.28;;;-2.39;100.00
12666;BME280;58531;59.050;17.416;2023-02-12T07:59:10;101938.84;;;-2.32;100.00
12666;BME280;58531;59.050;17.416;2023-02-12T08:01:40;101933.38;;;-2.18;100.00
12666;BME280;58531;59.050;17.416;2023-02-12T08:04:09;101937.63;;;-2.05;100.00
12666;BME280;58531;59.050;17.416;2023-02-12T08:06:37;101932.31;;;-1.97;100.00
12666;BME280;58531;59.050;17.416;2023-02-12T08:09:07;101929.34;;;-1.87;100.00
12666;BME280;58531;59.050;17.416;2023-02-12T08:11:35;101927.84;;;-1.76;100.00
12666;BME280;58531;59.050;17.416;2023-02-12T08:14:03;101919.50;;;-1.69;100.00
12666;BME280;58531;59.050;17.416;2023-02-12T08:16:30;101915.94;;;-1.53;100.00
12666;BME280;58531;59.050;17.416;2023-02-12T08:19:02;101913.84;;;-1.39;100.00
12666;BME280;58531;59.050;17.416;2023-02-12T08:21:29;101916.69;;;-1.32;100.00
12666;BME280;58531;59.050;17.416;2023-02-12T08:23:57;101904.78;;;-1.29;100.00
12666;BME280;58531;59.050;17.416;2023-02-12T08:26:26;101901.63;;;-1.23;100.00
12666;BME280;58531;59.050;17.416;2023-02-12T08:28:55;101899.91;;;-1.07;100.00
12666;BME280;58531;59.050;17.416;2023-02-12T08:31:25;101892.09;;;-0.95;100.00
12666;BME280;58531;59.050;17.416;2023-02-12T08:33:53;101882.25;;;-0.86;100.00
12666;BME280;58531;59.050;17.416;2023-02-12T08:36:22;101878.09;;;-0.75;100.00
12666;BME280;58531;59.050;17.416;2023-02-12T08:38:50;101877.56;;;-0.69;100.00
12666;BME280;58531;59.050;17.416;2023-02-12T08:41:22;101879.88;;;-0.79;100.00
12666;BME280;58531;59.050;17.416;2023-02-12T08:43:52;101879.97;;;-0.64;100.00
12666;BME280;58531;59.050;17.416;2023-02-12T08:46:20;101876.13;;;-0.54;100.00
12666;BME280;58531;59.050;17.416;2023-02-12T08:48:47;101878.63;;;-0.46;100.00
12666;BME280;58531;59.050;17.416;2023-02-12T08:51:16;101878.09;;;-0.39;100.00
12666;BME280;58531;59.050;17.416;2023-02-12T08:53:46;101876.34;;;-0.35;100.00
12666;BME280;58531;59.050;17.416;2023-02-12T08:56:15;101880.94;;;-0.32;100.00
12666;BME280;58531;59.050;17.416;2023-02-12T08:58:43;101885.09;;;-0.31;100.00
12666;BME280;58531;59.050;17.416;2023-02-12T09:01:13;101886.25;;;-0.17;100.00
12666;BME280;58531;59.050;17.416;2023-02-12T09:03:41;101889.41;;;-0.23;100.00
12666;BME280;58531;59.050;17.416;2023-02-12T09:06:08;101888.97;;;-0.13;100.00
12666;BME280;58531;59.050;17.416;2023-02-12T09:08:36;101889.75;;;-0.13;100.00
12666;BME280;58531;59.050;17.416;2023-02-12T09:11:06;101892.91;;;-0.07;100.00
12666;BME280;58531;59.050;17.416;2023-02-12T09:13:33;101894.13;;;-0.05;100.00
12666;BME280;58531;59.050;17.416;2023-02-12T09:16:01;101895.53;;;-0.07;100.00
12666;BME280;58531;59.050;17.416;2023-02-12T09:18:29;101892.25;;;-0.04;100.00
12666;BME280;58531;59.050;17.416;2023-02-12T09:21:00;101892.09;;;0.04;100.00
12666;BME280;58531;59.050;17.416;2023-02-12T09:23:27;101890.03;;;0.09;100.00
12666;BME280;58531;59.050;17.416;2023-02-12T09:25:54;101891.50;;;0.22;100.00
12666;BME280;58531;59.050;17.416;2023-02-12T09:28:22;101877.63;;;0.37;100.00
12666;BME280;58531;59.050;17.416;2023-02-12T09:30:49;101871.97;;;0.35;100.00
12666;BME280;58531;59.050;17.416;2023-02-12T09:33:16;101875.44;;;0.39;100.00
12666;BME280;58531;59.050;17.416;2023-02-12T09:35:43;101883.66;;;0.65;100.00
12666;BME280;58531;59.050;17.416;2023-02-12T09:38:10;101880.44;;;0.72;100.00
12666;BME280;58531;59.050;17.416;2023-02-12T09:40:43;101887.03;;;0.81;100.00
12666;BME280;58531;59.050;17.416;2023-02-12T09:43:19;101894.06;;;0.77;100.00
12666;BME280;58531;59.050;17.416;2023-02-12T09:46:02;101893.69;;;0.91;100.00
12666;BME280;58531;59.050;17.416;2023-02-12T09:48:41;101892.84;;;0.87;100.00
12666;BME280;58531;59.050;17.416;2023-02-12T09:51:10;101888.94;;;0.96;100.00
12666;BME280;58531;59.050;17.416;2023-02-12T09:53:39;101883.34;;;0.98;100.00
12666;BME280;58531;59.050;17.416;2023-02-12T09:56:12;101874.50;;;1.06;100.00
12666;BME280;58531;59.050;17.416;2023-02-12T09:58:42;101872.41;;;1.11;100.00
12666;BME280;58531;59.050;17.416;2023-02-12T10:01:14;101868.16;;;1.22;100.00
12666;BME280;58531;59.050;17.416;2023-02-12T10:03:43;101858.81;;;1.24;100.00
12666;BME280;58531;59.050;17.416;2023-02-12T10:06:13;101858.53;;;1.29;100.00
12666;BME280;58531;59.050;17.416;2023-02-12T10:08:50;101857.09;;;1.32;100.00
12666;BME280;58531;59.050;17.416;2023-02-12T10:11:31;101861.16;;;1.45;100.00
12666;BME280;58531;59.050;17.416;2023-02-12T10:14:08;101860.63;;;1.55;100.00
12666;BME280;58531;59.050;17.416;2023-02-12T10:16:49;101842.63;;;1.57;100.00
12666;BME280;58531;59.050;17.416;2023-02-12T10:19:40;101850.41;;;1.69;100.00
12666;BME280;58531;59.050;17.416;2023-02-12T10:22:22;101859.41;;;1.87;100.00
12666;BME280;58531;59.050;17.416;2023-02-12T10:25:06;101857.19;;;1.89;100.00
12666;BME280;58531;59.050;17.416;2023-02-12T10:27:38;101852.75;;;1.93;100.00
12666;BME280;58531;59.050;17.416;2023-02-12T10:30:15;101846.53;;;2.01;100.00
12666;BME280;58531;59.050;17.416;2023-02-12T10:32:47;101841.94;;;1.98;100.00
12666;BME280;58531;59.050;17.416;2023-02-12T10:35:17;101837.25;;;2.07;100.00
12666;BME280;58531;59.050;17.416;2023-02-12T10:37:51;101837.09;;;2.19;100.00
12666;BME280;58531;59.050;17.416;2023-02-12T10:40:22;101844.03;;;2.27;100.00
12666;BME280;58531;59.050;17.416;2023-02-12T10:42:52;101834.19;;;2.24;100.00
12666;BME280;58531;59.050;17.416;2023-02-12T10:45:21;101833.91;;;2.29;100.00
12666;BME280;58531;59.050;17.416;2023-02-12T10:47:53;101830.50;;;2.28;100.00
12666;BME280;58531;59.050;17.416;2023-02-12T10:50:43;101825.91;;;2.25;100.00
12666;BME280;58531;59.050;17.416;2023-02-12T10:53:17;101833.72;;;2.40;100.00
12666;BME280;58531;59.050;17.416;2023-02-12T10:55:46;101839.00;;;2.40;100.00
12666;BME280;58531;59.050;17.416;2023-02-12T10:58:19;101830.09;;;2.48;100.00
12666;BME280;58531;59.050;17.416;2023-02-12T11:00:55;101829.28;;;2.44;100.00
12666;BME280;58531;59.050;17.416;2023-02-12T11:03:28;101831.06;;;2.59;100.00
12666;BME280;58531;59.050;17.416;2023-02-12T11:06:10;101825.13;;;2.66;100.00
12666;BME280;58531;59.050;17.416;2023-02-12T11:08:38;101831.94;;;2.67;100.00
12666;BME280;58531;59.050;17.416;2023-02-12T11:11:08;101835.22;;;2.60;100.00
12666;BME280;58531;59.050;17.416;2023-02-12T11:13:36;101829.94;;;2.60;100.00
12666;BME280;58531;59.050;17.416;2023-02-12T11:16:05;101819.56;;;2.71;100.00
12666;BME280;58531;59.050;17.416;2023-02-12T11:18:34;101817.63;;;2.68;100.00
12666;BME280;58531;59.050;17.416;2023-02-12T11:21:04;101820.88;;;2.80;100.00
12666;BME280;58531;59.050;17.416;2023-02-12T11:23:33;101814.81;;;2.80;100.00
12666;BME280;58531;59.050;17.416;2023-02-12T11:26:03;101823.31;;;2.92;100.00
12666;BME280;58531;59.050;17.416;2023-02-12T11:28:32;101815.16;;;3.01;100.00
12666;BME280;58531;59.050;17.416;2023-02-12T11:31:02;101818.94;;;3.03;100.00
12666;BME280;58531;59.050;17.416;2023-02-12T11:33:31;101818.13;;;2.99;100.00
12666;BME280;58531;59.050;17.416;2023-02-12T11:36:03;101812.03;;;2.95;100.00
12666;BME280;58531;59.050;17.416;2023-02-12T11:38:33;101811.44;;;3.05;100.00
12666;BME280;58531;59.050;17.416;2023-02-12T11:41:21;101800.19;;;3.08;100.00
12666;BME280;58531;59.050;17.416;2023-02-12T11:43:49;101806.94;;;3.06;100.00
12666;BME280;58531;59.050;17.416;2023-02-12T11:46:19;101803.91;;;3.04;100.00
12666;BME280;58531;59.050;17.416;2023-02-12T11:48:47;101800.19;;;3.08;100.00
12666;BME280;58531;59.050;17.416;2023-02-12T11:51:20;101805.56;;;3.15;100.00
12666;BME280;58531;59.050;17.416;2023-02-12T11:53:49;101805.50;;;3.12;100.00
12666;BME280;58531;59.050;17.416;2023-02-12T11:56:17;101801.50;;;2.95;100.00
12666;BME280;58531;59.050;17.416;2023-02-12T11:58:45;101788.81;;;3.04;100.00
12666;BME280;58531;59.050;17.416;2023-02-12T12:01:17;101778.97;;;3.01;100.00
12666;BME280;58531;59.050;17.416;2023-02-12T12:03:52;101779.41;;;3.07;100.00
12666;BME280;58531;59.050;17.416;2023-02-12T12:06:26;101777.59;;;3.11;100.00
12666;BME280;58531;59.050;17.416;2023-02-12T12:09:01;101772.69;;;3.09;100.00
12666;BME280;58531;59.050;17.416;2023-02-12T12:11:35;101772.47;;;3.21;100.00
12666;BME280;58531;59.050;17.416;2023-02-12T12:14:09;101786.09;;;3.23;100.00
12666;BME280;58531;59.050;17.416;2023-02-12T12:16:41;101789.59;;;3.34;100.00
12666;BME280;58531;59.050;17.416;2023-02-12T12:19:29;101794.34;;;3.47;100.00
12666;BME280;58531;59.050;17.416;2023-02-12T12:22:22;101793.97;;;3.49;100.00
12666;BME280;58531;59.050;17.416;2023-02-12T12:24:56;101781.97;;;3.55;100.00
12666;BME280;58531;59.050;17.416;2023-02-12T12:27:27;101773.63;;;3.53;100.00
12666;BME280;58531;59.050;17.416;2023-02-12T12:30:19;101780.44;;;3.54;100.00
12666;BME280;58531;59.050;17.416;2023-02-12T12:32:49;101773.63;;;3.53;100.00
12666;BME280;58531;59.050;17.416;2023-02-12T12:35:23;101777.00;;;3.50;100.00
12666;BME280;58531;59.050;17.416;2023-02-12T12:37:57;101772.94;;;3.56;100.00
12666;BME280;58531;59.050;17.416;2023-02-12T12:40:46;101776.50;;;3.41;100.00
12666;BME280;58531;59.050;17.416;2023-02-12T12:43:25;101776.88;;;3.40;100.00
12666;BME280;58531;59.050;17.416;2023-02-12T12:46:21;101779.50;;;3.40;100.00
12666;BME280;58531;59.050;17.416;2023-02-12T12:49:01;101773.50;;;3.43;100.00
12666;BME280;58531;59.050;17.416;2023-02-12T12:51:43;101775.69;;;3.37;100.00
12666;BME280;58531;59.050;17.416;2023-02-12T12:54:28;101774.97;;;3.40;100.00